sensor_id;sensor_type;location;lat;lon;timestamp;temperature;humidity
7844;DHT22;3967;48.702;9.326;2023-03-01T00:00:04;1.80;78.00
7844;DHT22;3967;48.702;9.326;2023-03-01T00:02:31;1.80;78.00
7844;DHT22;3967;48.702;9.326;2023-03-01T00:04:58;1.70;78.00
7844;DHT22;3967;48.702;9.326;2023-03-01T00:07:24;1.70;78.00
7844;DHT22;3967;48.702;9.326;2023-03-01T00:09:51;1.50;78.30
7844;DHT22;3967;48.702;9.326;2023-03-01T00:12:18;1.60;78.50
7844;DHT22;3967;48.702;9.326;2023-03-01T00:14:44;1.60;78.40
7844;DHT22;3967;48.702;9.326;2023-03-01T00:17:11;1.70;78.50
7844;DHT22;3967;48.702;9.326;2023-03-01T00:19:38;1.50;78.20
7844;DHT22;3967;48.702;9.326;2023-03-01T00:22:05;1.40;78.80
7844;DHT22;3967;48.702;9.326;2023-03-01T00:24:31;1.30;79.40
7844;DHT22;3967;48.702;9.326;2023-03-01T00:26:58;1.30;79.50
7844;DHT22;3967;48.702;9.326;2023-03-01T00:29:25;1.30;79.50
7844;DHT22;3967;48.702;9.326;2023-03-01T00:31:52;1.30;79.50
7844;DHT22;3967;48.702;9.326;2023-03-01T00:34:19;1.30;79.80
7844;DHT22;3967;48.702;9.326;2023-03-01T00:36:45;1.20;79.50
7844;DHT22;3967;48.702;9.326;2023-03-01T00:39:14;1.40;79.70
7844;DHT22;3967;48.702;9.326;2023-03-01T00:41:42;1.20;80.00
7844;DHT22;3967;48.702;9.326;2023-03-01T00:44:10;1.20;80.40
7844;DHT22;3967;48.702;9.326;2023-03-01T00:46:37;1.30;80.30
7844;DHT22;3967;48.702;9.326;2023-03-01T00:49:04;1.20;80.40
7844;DHT22;3967;48.702;9.326;2023-03-01T00:51:31;1.20;80.80
7844;DHT22;3967;48.702;9.326;2023-03-01T00:54:00;1.10;81.30
7844;DHT22;3967;48.702;9.326;2023-03-01T00:56:28;1.20;81.40
7844;DHT22;3967;48.702;9.326;2023-03-01T00:58:55;1.20;81.20
7844;DHT22;3967;48.702;9.326;2023-03-01T01:01:25;1.20;81.10
7844;DHT22;3967;48.702;9.326;2023-03-01T01:03:56;1.30;81.10
7844;DHT22;3967;48.702;9.326;2023-03-01T01:06:29;1.30;80.90
7844;DHT22;3967;48.702;9.326;2023-03-01T01:08:57;1.30;80.80
7844;DHT22;3967;48.702;9.326;2023-03-01T01:11:26;1.40;80.70
7844;DHT22;3967;48.702;9.326;2023-03-01T01:13:54;1.30;80.80
7844;DHT22;3967;48.702;9.326;2023-03-01T01:16:22;1.30;80.80
7844;DHT22;3967;48.702;9.326;2023-03-01T01:18:49;1.30;80.90
7844;DHT22;3967;48.702;9.326;2023-03-01T01:21:19;1.10;80.80
7844;DHT22;3967;48.702;9.326;2023-03-01T01:23:46;1.10;81.10
7844;DHT22;3967;48.702;9.326;2023-03-01T01:26:19;1.00;81.70
7844;DHT22;3967;48.702;9.326;2023-03-01T01:28:47;0.80;82.00
7844;DHT22;3967;48.702;9.326;2023-03-01T01:31:14;0.90;82.50
7844;DHT22;3967;48.702;9.326;2023-03-01T01:33:41;0.80;82.50
7844;DHT22;3967;48.702;9.326;2023-03-01T01:36:09;0.70;83.10
7844;DHT22;3967;48.702;9.326;2023-03-01T01:38:37;0.70;83.60
7844;DHT22;3967;48.702;9.326;2023-03-01T01:41:05;0.70;84.70
7844;DHT22;3967;48.702;9.326;2023-03-01T01:43:37;0.60;84.10
7844;DHT22;3967;48.702;9.326;2023-03-01T01:48:53;0.80;85.00
7844;DHT22;3967;48.702;9.326;2023-03-01T01:51:29;0.70;84.80
7844;DHT22;3967;48.702;9.326;2023-03-01T01:54:36;0.90;85.10
7844;DHT22;3967;48.702;9.326;2023-03-01T01:57:17;1.00;85.00
7844;DHT22;3967;48.702;9.326;2023-03-01T01:59:49;1.00;85.00
7844;DHT22;3967;48.702;9.326;2023-03-01T02:02:18;1.00;84.40
7844;DHT22;3967;48.702;9.326;2023-03-01T02:04:46;1.10;84.30
7844;DHT22;3967;48.702;9.326;2023-03-01T02:07:20;1.10;83.70
7844;DHT22;3967;48.702;9.326;2023-03-01T02:09:50;1.10;83.40
7844;DHT22;3967;48.702;9.326;2023-03-01T02:12:19;1.10;83.10
7844;DHT22;3967;48.702;9.326;2023-03-01T02:14:46;1.10;83.50
7844;DHT22;3967;48.702;9.326;2023-03-01T02:17:15;1.10;83.10
7844;DHT22;3967;48.702;9.326;2023-03-01T02:20:21;1.10;83.30
7844;DHT22;3967;48.702;9.326;2023-03-01T02:22:52;0.90;83.80
7844;DHT22;3967;48.702;9.326;2023-03-01T02:25:41;1.00;84.30
7844;DHT22;3967;48.702;9.326;2023-03-01T02:28:21;1.10;84.50
7844;DHT22;3967;48.702;9.326;2023-03-01T02:30:49;1.10;84.20
7844;DHT22;3967;48.702;9.326;2023-03-01T02:33:37;1.00;84.10
7844;DHT22;3967;48.702;9.326;2023-03-01T02:36:12;1.00;84.20
7844;DHT22;3967;48.702;9.326;2023-03-01T02:38:42;0.90;84.60
7844;DHT22;3967;48.702;9.326;2023-03-01T02:41:10;0.80;84.80
7844;DHT22;3967;48.702;9.326;2023-03-01T02:43:38;0.90;85.00
7844;DHT22;3967;48.702;9.326;2023-03-01T02:46:18;0.90;84.80
7844;DHT22;3967;48.702;9.326;2023-03-01T02:48:49;0.80;84.80
7844;DHT22;3967;48.702;9.326;2023-03-01T02:51:37;0.80;85.20
7844;DHT22;3967;48.702;9.326;2023-03-01T02:56:42;1.00;84.90
7844;DHT22;3967;48.702;9.326;2023-03-01T02:59:10;1.10;84.30
7844;DHT22;3967;48.702;9.326;2023-03-01T03:01:37;1.00;84.20
7844;DHT22;3967;48.702;9.326;2023-03-01T03:04:06;0.90;84.60
7844;DHT22;3967;48.702;9.326;2023-03-01T03:06:33;1.00;84.80
7844;DHT22;3967;48.702;9.326;2023-03-01T03:09:00;0.90;84.90
7844;DHT22;3967;48.702;9.326;2023-03-01T03:11:27;1.00;85.00
7844;DHT22;3967;48.702;9.326;2023-03-01T03:13:54;0.90;85.40
7844;DHT22;3967;48.702;9.326;2023-03-01T03:16:22;0.80;85.20
7844;DHT22;3967;48.702;9.326;2023-03-01T03:18:49;0.90;85.70
7844;DHT22;3967;48.702;9.326;2023-03-01T03:21:16;1.00;85.50
7844;DHT22;3967;48.702;9.326;2023-03-01T03:23:43;1.00;84.70
7844;DHT22;3967;48.702;9.326;2023-03-01T03:26:10;0.90;84.90
7844;DHT22;3967;48.702;9.326;2023-03-01T03:28:39;1.00;85.20
7844;DHT22;3967;48.702;9.326;2023-03-01T03:31:07;0.80;85.30
7844;DHT22;3967;48.702;9.326;2023-03-01T03:33:34;0.90;85.50
7844;DHT22;3967;48.702;9.326;2023-03-01T03:36:01;0.90;85.30
7844;DHT22;3967;48.702;9.326;2023-03-01T03:38:28;0.80;86.40
7844;DHT22;3967;48.702;9.326;2023-03-01T03:41:03;0.90;85.90
7844;DHT22;3967;48.702;9.326;2023-03-01T03:43:32;0.90;86.00
7844;DHT22;3967;48.702;9.326;2023-03-01T03:45:59;0.80;86.30
7844;DHT22;3967;48.702;9.326;2023-03-01T03:48:27;0.70;86.70
7844;DHT22;3967;48.702;9.326;2023-03-01T03:50:55;0.90;87.10
7844;DHT22;3967;48.702;9.326;2023-03-01T03:53:24;1.00;86.80
7844;DHT22;3967;48.702;9.326;2023-03-01T03:55:51;1.00;86.30
7844;DHT22;3967;48.702;9.326;2023-03-01T03:58:20;1.00;86.20
7844;DHT22;3967;48.702;9.326;2023-03-01T04:00:51;1.10;86.20
7844;DHT22;3967;48.702;9.326;2023-03-01T04:03:19;1.20;85.70
7844;DHT22;3967;48.702;9.326;2023-03-01T04:05:46;1.20;85.80
7844;DHT22;3967;48.702;9.326;2023-03-01T04:08:13;1.10;85.70
7844;DHT22;3967;48.702;9.326;2023-03-01T04:10:43;1.10;86.10
7844;DHT22;3967;48.702;9.326;2023-03-01T04:13:12;1.20;86.20
7844;DHT22;3967;48.702;9.326;2023-03-01T04:15:39;1.20;85.90
7844;DHT22;3967;48.702;9.326;2023-03-01T04:18:07;1.10;86.20
7844;DHT22;3967;48.702;9.326;2023-03-01T04:20:35;1.00;86.80
7844;DHT22;3967;48.702;9.326;2023-03-01T04:23:07;1.00;86.90
7844;DHT22;3967;48.702;9.326;2023-03-01T04:28:05;1.00;86.90
7844;DHT22;3967;48.702;9.326;2023-03-01T04:30:32;1.10;87.10
7844;DHT22;3967;48.702;9.326;2023-03-01T04:33:06;1.10;87.30
7844;DHT22;3967;48.702;9.326;2023-03-01T04:35:34;1.30;87.20
7844;DHT22;3967;48.702;9.326;2023-03-01T04:38:01;1.40;86.80
7844;DHT22;3967;48.702;9.326;2023-03-01T04:40:29;1.30;86.60
7844;DHT22;3967;48.702;9.326;2023-03-01T04:42:56;1.30;87.20
7844;DHT22;3967;48.702;9.326;2023-03-01T04:45:23;1.20;87.00
7844;DHT22;3967;48.702;9.326;2023-03-01T04:47:49;1.20;87.20
7844;DHT22;3967;48.702;9.326;2023-03-01T04:50:19;1.10;88.00
7844;DHT22;3967;48.702;9.326;2023-03-01T04:52:49;1.20;87.00
7844;DHT22;3967;48.702;9.326;2023-03-01T04:55:16;1.20;86.90
7844;DHT22;3967;48.702;9.326;2023-03-01T04:57:43;1.20;86.80
7844;DHT22;3967;48.702;9.326;2023-03-01T05:00:12;1.20;86.80
7844;DHT22;3967;48.702;9.326;2023-03-01T05:02:54;1.30;86.80
7844;DHT22;3967;48.702;9.326;2023-03-01T05:05:33;1.00;86.70
7844;DHT22;3967;48.702;9.326;2023-03-01T05:08:02;1.00;87.60
7844;DHT22;3967;48.702;9.326;2023-03-01T05:10:32;1.10;87.50
7844;DHT22;3967;48.702;9.326;2023-03-01T05:12:59;1.10;87.70
7844;DHT22;3967;48.702;9.326;2023-03-01T05:15:28;1.10;87.80
7844;DHT22;3967;48.702;9.326;2023-03-01T05:17:58;1.30;87.60
7844;DHT22;3967;48.702;9.326;2023-03-01T05:20:27;1.20;87.60
7844;DHT22;3967;48.702;9.326;2023-03-01T05:22:57;1.10;88.20
7844;DHT22;3967;48.702;9.326;2023-03-01T05:25:25;1.20;88.40
7844;DHT22;3967;48.702;9.326;2023-03-01T05:27:52;1.30;88.00
7844;DHT22;3967;48.702;9.326;2023-03-01T05:30:19;1.40;87.50
7844;DHT22;3967;48.702;9.326;2023-03-01T05:32:49;1.30;87.70
7844;DHT22;3967;48.702;9.326;2023-03-01T05:35:17;1.20;88.20
7844;DHT22;3967;48.702;9.326;2023-03-01T05:37:46;1.30;88.00
7844;DHT22;3967;48.702;9.326;2023-03-01T05:40:17;1.40;87.70
7844;DHT22;3967;48.702;9.326;2023-03-01T05:42:46;1.30;87.40
7844;DHT22;3967;48.702;9.326;2023-03-01T05:45:14;1.20;87.40
7844;DHT22;3967;48.702;9.326;2023-03-01T05:47:42;1.30;87.70
7844;DHT22;3967;48.702;9.326;2023-03-01T05:50:27;1.30;87.20
7844;DHT22;3967;48.702;9.326;2023-03-01T05:55:29;1.20;88.00
7844;DHT22;3967;48.702;9.326;2023-03-01T05:58:06;1.30;87.60
7844;DHT22;3967;48.702;9.326;2023-03-01T06:00:34;1.40;87.70
7844;DHT22;3967;48.702;9.326;2023-03-01T06:03:01;1.30;87.30
7844;DHT22;3967;48.702;9.326;2023-03-01T06:05:28;1.40;87.40
7844;DHT22;3967;48.702;9.326;2023-03-01T06:08:00;1.40;87.80
7844;DHT22;3967;48.702;9.326;2023-03-01T06:10:28;1.20;87.80
7844;DHT22;3967;48.702;9.326;2023-03-01T06:12:55;1.20;88.40
7844;DHT22;3967;48.702;9.326;2023-03-01T06:15:22;1.20;88.10
7844;DHT22;3967;48.702;9.326;2023-03-01T06:17:49;1.20;88.20
7844;DHT22;3967;48.702;9.326;2023-03-01T06:20:21;1.20;88.60
7844;DHT22;3967;48.702;9.326;2023-03-01T06:22:49;1.20;87.80
7844;DHT22;3967;48.702;9.326;2023-03-01T06:25:18;1.20;87.80
7844;DHT22;3967;48.702;9.326;2023-03-01T06:27:45;1.30;88.10
7844;DHT22;3967;48.702;9.326;2023-03-01T06:30:13;1.30;87.60
7844;DHT22;3967;48.702;9.326;2023-03-01T06:32:41;1.30;87.70
7844;DHT22;3967;48.702;9.326;2023-03-01T06:35:11;1.40;87.70
7844;DHT22;3967;48.702;9.326;2023-03-01T06:37:39;1.50;87.40
7844;DHT22;3967;48.702;9.326;2023-03-01T06:40:07;1.30;87.10
7844;DHT22;3967;48.702;9.326;2023-03-01T06:42:39;1.30;87.10
7844;DHT22;3967;48.702;9.326;2023-03-01T06:45:07;1.30;87.40
7844;DHT22;3967;48.702;9.326;2023-03-01T06:47:34;1.30;87.30
7844;DHT22;3967;48.702;9.326;2023-03-01T06:50:02;1.20;87.90
7844;DHT22;3967;48.702;9.326;2023-03-01T06:52:29;1.10;87.80
7844;DHT22;3967;48.702;9.326;2023-03-01T06:54:56;1.10;87.70
7844;DHT22;3967;48.702;9.326;2023-03-01T06:57:23;1.10;87.70
7844;DHT22;3967;48.702;9.326;2023-03-01T06:59:50;1.00;87.80
7844;DHT22;3967;48.702;9.326;2023-03-01T07:02:17;0.90;88.00
7844;DHT22;3967;48.702;9.326;2023-03-01T07:04:43;0.90;88.00
7844;DHT22;3967;48.702;9.326;2023-03-01T07:07:11;0.90;87.60
7844;DHT22;3967;48.702;9.326;2023-03-01T07:09:37;1.00;87.90
7844;DHT22;3967;48.702;9.326;2023-03-01T07:12:04;1.10;87.70
7844;DHT22;3967;48.702;9.326;2023-03-01T07:14:31;1.20;88.00
7844;DHT22;3967;48.702;9.326;2023-03-01T07:16:58;1.20;87.70
7844;DHT22;3967;48.702;9.326;2023-03-01T07:19:25;1.30;87.50
7844;DHT22;3967;48.702;9.326;2023-03-01T07:21:51;1.30;87.10
7844;DHT22;3967;48.702;9.326;2023-03-01T07:24:18;1.50;87.10
7844;DHT22;3967;48.702;9.326;2023-03-01T07:26:48;1.60;87.10
7844;DHT22;3967;48.702;9.326;2023-03-01T07:29:16;1.60;86.20
7844;DHT22;3967;48.702;9.326;2023-03-01T07:31:43;1.60;85.70
7844;DHT22;3967;48.702;9.326;2023-03-01T07:34:10;1.70;86.20
7844;DHT22;3967;48.702;9.326;2023-03-01T07:36:37;2.00;86.10
7844;DHT22;3967;48.702;9.326;2023-03-01T07:39:05;2.20;85.40
7844;DHT22;3967;48.702;9.326;2023-03-01T07:41:33;2.40;84.90
7844;DHT22;3967;48.702;9.326;2023-03-01T07:43:59;2.30;83.70
7844;DHT22;3967;48.702;9.326;2023-03-01T07:46:26;2.30;83.80
7844;DHT22;3967;48.702;9.326;2023-03-01T07:48:53;2.10;83.30
7844;DHT22;3967;48.702;9.326;2023-03-01T07:51:20;2.10;83.70
7844;DHT22;3967;48.702;9.326;2023-03-01T07:53:48;2.00;83.70
7844;DHT22;3967;48.702;9.326;2023-03-01T07:56:15;2.10;84.40
7844;DHT22;3967;48.702;9.326;2023-03-01T07:58:45;2.00;83.60
7844;DHT22;3967;48.702;9.326;2023-03-01T08:01:17;2.30;83.60
7844;DHT22;3967;48.702;9.326;2023-03-01T08:03:44;2.30;83.00
7844;DHT22;3967;48.702;9.326;2023-03-01T08:06:12;2.20;82.80
7844;DHT22;3967;48.702;9.326;2023-03-01T08:08:39;2.40;82.90
7844;DHT22;3967;48.702;9.326;2023-03-01T08:11:07;2.50;82.80
7844;DHT22;3967;48.702;9.326;2023-03-01T08:13:34;2.60;82.40
7844;DHT22;3967;48.702;9.326;2023-03-01T08:16:12;2.70;81.80
7844;DHT22;3967;48.702;9.326;2023-03-01T08:18:39;2.70;81.60
7844;DHT22;3967;48.702;9.326;2023-03-01T08:21:09;2.90;81.60
7844;DHT22;3967;48.702;9.326;2023-03-01T08:23:36;2.70;80.90
7844;DHT22;3967;48.702;9.326;2023-03-01T08:26:11;2.80;81.00
7844;DHT22;3967;48.702;9.326;2023-03-01T08:28:39;3.00;80.70
7844;DHT22;3967;48.702;9.326;2023-03-01T08:31:24;3.10;80.00
7844;DHT22;3967;48.702;9.326;2023-03-01T08:33:54;3.30;79.20
7844;DHT22;3967;48.702;9.326;2023-03-01T08:36:25;3.40;79.20
7844;DHT22;3967;48.702;9.326;2023-03-01T08:38:53;3.60;79.10
7844;DHT22;3967;48.702;9.326;2023-03-01T08:41:20;3.30;77.70
7844;DHT22;3967;48.702;9.326;2023-03-01T08:43:47;3.20;77.40
7844;DHT22;3967;48.702;9.326;2023-03-01T08:46:14;3.30;77.30
7844;DHT22;3967;48.702;9.326;2023-03-01T08:48:41;3.40;77.70
7844;DHT22;3967;48.702;9.326;2023-03-01T08:51:10;3.30;76.60
7844;DHT22;3967;48.702;9.326;2023-03-01T08:53:37;3.50;76.80
7844;DHT22;3967;48.702;9.326;2023-03-01T08:56:05;3.70;76.40
7844;DHT22;3967;48.702;9.326;2023-03-01T08:58:32;3.90;75.60
7844;DHT22;3967;48.702;9.326;2023-03-01T09:00:59;3.70;74.50
7844;DHT22;3967;48.702;9.326;2023-03-01T09:03:26;3.90;75.00
7844;DHT22;3967;48.702;9.326;2023-03-01T09:05:53;3.90;74.70
7844;DHT22;3967;48.702;9.326;2023-03-01T09:08:25;4.10;74.70
7844;DHT22;3967;48.702;9.326;2023-03-01T09:10:52;4.00;73.50
7844;DHT22;3967;48.702;9.326;2023-03-01T09:13:19;3.70;73.40
7844;DHT22;3967;48.702;9.326;2023-03-01T09:15:46;3.90;74.30
7844;DHT22;3967;48.702;9.326;2023-03-01T09:18:12;4.30;74.10
7844;DHT22;3967;48.702;9.326;2023-03-01T09:20:39;4.50;73.20
7844;DHT22;3967;48.702;9.326;2023-03-01T09:23:06;4.60;72.40
7844;DHT22;3967;48.702;9.326;2023-03-01T09:25:34;4.80;72.00
7844;DHT22;3967;48.702;9.326;2023-03-01T09:28:01;4.60;71.10
7844;DHT22;3967;48.702;9.326;2023-03-01T09:30:27;4.50;72.40
7844;DHT22;3967;48.702;9.326;2023-03-01T09:32:56;4.50;71.60
7844;DHT22;3967;48.702;9.326;2023-03-01T09:35:23;4.50;71.60
7844;DHT22;3967;48.702;9.326;2023-03-01T09:37:50;4.40;72.20
7844;DHT22;3967;48.702;9.326;2023-03-01T09:40:21;4.50;71.90
7844;DHT22;3967;48.702;9.326;2023-03-01T09:43:13;4.50;71.90
7844;DHT22;3967;48.702;9.326;2023-03-01T09:45:45;4.70;71.70
7844;DHT22;3967;48.702;9.326;2023-03-01T09:48:17;4.70;71.90
7844;DHT22;3967;48.702;9.326;2023-03-01T09:50:45;4.70;71.30
7844;DHT22;3967;48.702;9.326;2023-03-01T09:53:22;4.60;70.80
7844;DHT22;3967;48.702;9.326;2023-03-01T09:56:05;4.70;71.40
7844;DHT22;3967;48.702;9.326;2023-03-01T10:04:49;4.90;71.00
7844;DHT22;3967;48.702;9.326;2023-03-01T10:10:22;4.80;70.50
7844;DHT22;3967;48.702;9.326;2023-03-01T10:12:50;4.90;70.40
7844;DHT22;3967;48.702;9.326;2023-03-01T10:15:22;4.90;70.30
7844;DHT22;3967;48.702;9.326;2023-03-01T10:18:05;5.10;70.90
7844;DHT22;3967;48.702;9.326;2023-03-01T10:20:52;5.30;70.20
7844;DHT22;3967;48.702;9.326;2023-03-01T10:23:19;5.20;69.80
7844;DHT22;3967;48.702;9.326;2023-03-01T10:36:50;5.50;70.40
7844;DHT22;3967;48.702;9.326;2023-03-01T10:39:23;5.60;69.10
7844;DHT22;3967;48.702;9.326;2023-03-01T10:47:04;5.40;69.20
7844;DHT22;3967;48.702;9.326;2023-03-01T10:49:31;5.50;68.90
7844;DHT22;3967;48.702;9.326;2023-03-01T10:52:16;5.50;68.80
7844;DHT22;3967;48.702;9.326;2023-03-01T10:54:56;5.50;69.10
7844;DHT22;3967;48.702;9.326;2023-03-01T10:57:33;5.60;69.50
7844;DHT22;3967;48.702;9.326;2023-03-01T11:02:50;5.90;69.10
7844;DHT22;3967;48.702;9.326;2023-03-01T11:05:23;5.90;68.60
7844;DHT22;3967;48.702;9.326;2023-03-01T11:07:58;5.90;68.20
7844;DHT22;3967;48.702;9.326;2023-03-01T11:10:34;6.00;68.70
7844;DHT22;3967;48.702;9.326;2023-03-01T11:13:16;5.90;68.00
7844;DHT22;3967;48.702;9.326;2023-03-01T11:16:01;5.80;68.10
7844;DHT22;3967;48.702;9.326;2023-03-01T11:18:30;6.00;67.80
7844;DHT22;3967;48.702;9.326;2023-03-01T11:21:13;6.20;67.70
7844;DHT22;3967;48.702;9.326;2023-03-01T11:23:43;6.30;67.40
7844;DHT22;3967;48.702;9.326;2023-03-01T11:26:12;6.70;67.50
7844;DHT22;3967;48.702;9.326;2023-03-01T11:28:41;6.70;66.90
7844;DHT22;3967;48.702;9.326;2023-03-01T11:31:10;6.40;66.50
7844;DHT22;3967;48.702;9.326;2023-03-01T11:33:57;6.50;66.70
7844;DHT22;3967;48.702;9.326;2023-03-01T11:36:35;6.30;66.30
7844;DHT22;3967;48.702;9.326;2023-03-01T11:41:40;6.30;66.30
7844;DHT22;3967;48.702;9.326;2023-03-01T11:44:16;6.50;66.50
7844;DHT22;3967;48.702;9.326;2023-03-01T11:46:54;6.60;66.10
7844;DHT22;3967;48.702;9.326;2023-03-01T11:52:48;6.70;67.40
7844;DHT22;3967;48.702;9.326;2023-03-01T12:01:24;6.80;66.00
7844;DHT22;3967;48.702;9.326;2023-03-01T12:07:00;7.00;67.10
7844;DHT22;3967;48.702;9.326;2023-03-01T12:09:51;7.10;65.80
7844;DHT22;3967;48.702;9.326;2023-03-01T12:18:20;7.00;65.20
7844;DHT22;3967;48.702;9.326;2023-03-01T12:21:02;7.10;65.00
7844;DHT22;3967;48.702;9.326;2023-03-01T12:26:49;7.30;67.10
7844;DHT22;3967;48.702;9.326;2023-03-01T12:29:58;7.30;65.70
7844;DHT22;3967;48.702;9.326;2023-03-01T12:43:07;7.40;63.90
7844;DHT22;3967;48.702;9.326;2023-03-01T12:46:06;7.40;64.50
7844;DHT22;3967;48.702;9.326;2023-03-01T12:51:32;7.40;63.10
7844;DHT22;3967;48.702;9.326;2023-03-01T12:54:07;7.50;64.30
7844;DHT22;3967;48.702;9.326;2023-03-01T12:56:38;7.50;64.20
7844;DHT22;3967;48.702;9.326;2023-03-01T13:07:22;7.40;64.80
7844;DHT22;3967;48.702;9.326;2023-03-01T13:12:50;7.30;65.50
7844;DHT22;3967;48.702;9.326;2023-03-01T13:17:54;7.30;66.40
7844;DHT22;3967;48.702;9.326;2023-03-01T13:20:45;7.40;66.50
7844;DHT22;3967;48.702;9.326;2023-03-01T13:26:01;7.40;66.00
7844;DHT22;3967;48.702;9.326;2023-03-01T13:31:06;7.50;66.20
7844;DHT22;3967;48.702;9.326;2023-03-01T13:33:40;7.60;66.30
7844;DHT22;3967;48.702;9.326;2023-03-01T13:36:09;7.60;65.60
7844;DHT22;3967;48.702;9.326;2023-03-01T13:44:13;7.60;66.00
7844;DHT22;3967;48.702;9.326;2023-03-01T13:46:47;7.50;65.20
7844;DHT22;3967;48.702;9.326;2023-03-01T13:49:16;7.70;65.70
7844;DHT22;3967;48.702;9.326;2023-03-01T13:51:49;7.80;65.90
7844;DHT22;3967;48.702;9.326;2023-03-01T13:54:29;7.70;65.20
7844;DHT22;3967;48.702;9.326;2023-03-01T13:56:58;7.70;65.00
7844;DHT22;3967;48.702;9.326;2023-03-01T13:59:26;7.70;64.20
7844;DHT22;3967;48.702;9.326;2023-03-01T14:01:58;7.60;63.90
7844;DHT22;3967;48.702;9.326;2023-03-01T14:04:30;7.60;64.20
7844;DHT22;3967;48.702;9.326;2023-03-01T14:07:33;7.70;64.20
7844;DHT22;3967;48.702;9.326;2023-03-01T14:10:03;7.90;65.10
7844;DHT22;3967;48.702;9.326;2023-03-01T14:15:19;7.70;63.40
7844;DHT22;3967;48.702;9.326;2023-03-01T14:20:43;7.80;64.10
7844;DHT22;3967;48.702;9.326;2023-03-01T14:23:15;7.90;63.60
7844;DHT22;3967;48.702;9.326;2023-03-01T14:25:53;7.90;63.50
7844;DHT22;3967;48.702;9.326;2023-03-01T14:28:26;8.00;63.50
7844;DHT22;3967;48.702;9.326;2023-03-01T14:30:55;8.00;63.10
7844;DHT22;3967;48.702;9.326;2023-03-01T14:33:35;8.00;63.70
7844;DHT22;3967;48.702;9.326;2023-03-01T14:36:09;7.90;63.40
7844;DHT22;3967;48.702;9.326;2023-03-01T14:38:40;7.90;64.00
7844;DHT22;3967;48.702;9.326;2023-03-01T14:41:20;8.00;63.70
7844;DHT22;3967;48.702;9.326;2023-03-01T14:44:05;7.90;63.40
7844;DHT22;3967;48.702;9.326;2023-03-01T14:46:38;7.90;63.70
7844;DHT22;3967;48.702;9.326;2023-03-01T14:49:11;7.80;63.40
7844;DHT22;3967;48.702;9.326;2023-03-01T14:51:41;7.80;64.10
7844;DHT22;3967;48.702;9.326;2023-03-01T14:59:43;7.90;64.20
7844;DHT22;3967;48.702;9.326;2023-03-01T15:02:16;7.90;64.00
7844;DHT22;3967;48.702;9.326;2023-03-01T15:04:51;7.80;63.90
7844;DHT22;3967;48.702;9.326;2023-03-01T15:07:26;7.80;64.30
7844;DHT22;3967;48.702;9.326;2023-03-01T15:09:56;7.70;64.80
7844;DHT22;3967;48.702;9.326;2023-03-01T15:14:56;7.90;64.40
7844;DHT22;3967;48.702;9.326;2023-03-01T15:17:35;7.90;64.30
7844;DHT22;3967;48.702;9.326;2023-03-01T15:20:14;7.90;63.90
7844;DHT22;3967;48.702;9.326;2023-03-01T15:22:46;7.80;63.80
7844;DHT22;3967;48.702;9.326;2023-03-01T15:25:16;7.80;64.10
7844;DHT22;3967;48.702;9.326;2023-03-01T15:27:49;7.80;63.80
7844;DHT22;3967;48.702;9.326;2023-03-01T15:30:23;7.90;64.30
7844;DHT22;3967;48.702;9.326;2023-03-01T15:35:50;7.70;64.00
7844;DHT22;3967;48.702;9.326;2023-03-01T15:41:26;7.60;64.90
7844;DHT22;3967;48.702;9.326;2023-03-01T15:43:54;7.70;64.20
7844;DHT22;3967;48.702;9.326;2023-03-01T15:46:33;7.60;63.70
7844;DHT22;3967;48.702;9.326;2023-03-01T15:49:41;7.50;63.90
7844;DHT22;3967;48.702;9.326;2023-03-01T15:52:33;7.50;63.90
7844;DHT22;3967;48.702;9.326;2023-03-01T15:55:06;7.50;64.10
7844;DHT22;3967;48.702;9.326;2023-03-01T15:57:33;7.50;64.10
7844;DHT22;3967;48.702;9.326;2023-03-01T16:00:00;7.60;64.30
7844;DHT22;3967;48.702;9.326;2023-03-01T16:02:28;7.50;63.90
7844;DHT22;3967;48.702;9.326;2023-03-01T16:04:54;7.60;64.20
7844;DHT22;3967;48.702;9.326;2023-03-01T16:07:22;7.60;64.10
7844;DHT22;3967;48.702;9.326;2023-03-01T16:09:49;7.30;64.20
7844;DHT22;3967;48.702;9.326;2023-03-01T16:12:16;7.30;64.20
7844;DHT22;3967;48.702;9.326;2023-03-01T16:14:43;7.40;63.80
7844;DHT22;3967;48.702;9.326;2023-03-01T16:17:10;7.40;63.70
7844;DHT22;3967;48.702;9.326;2023-03-01T16:19:37;7.30;64.00
7844;DHT22;3967;48.702;9.326;2023-03-01T16:22:04;7.40;64.70
7844;DHT22;3967;48.702;9.326;2023-03-01T16:24:31;7.30;64.50
7844;DHT22;3967;48.702;9.326;2023-03-01T16:26:58;7.30;64.50
7844;DHT22;3967;48.702;9.326;2023-03-01T16:29:25;7.30;64.60
7844;DHT22;3967;48.702;9.326;2023-03-01T16:31:52;7.30;64.50
7844;DHT22;3967;48.702;9.326;2023-03-01T16:34:19;7.20;65.20
7844;DHT22;3967;48.702;9.326;2023-03-01T16:36:48;7.00;65.80
7844;DHT22;3967;48.702;9.326;2023-03-01T16:39:15;7.00;65.90
7844;DHT22;3967;48.702;9.326;2023-03-01T16:41:43;7.20;66.60
7844;DHT22;3967;48.702;9.326;2023-03-01T16:44:10;7.30;66.20
7844;DHT22;3967;48.702;9.326;2023-03-01T16:46:36;7.50;65.40
7844;DHT22;3967;48.702;9.326;2023-03-01T16:49:03;7.50;65.10
7844;DHT22;3967;48.702;9.326;2023-03-01T16:51:30;7.50;64.70
7844;DHT22;3967;48.702;9.326;2023-03-01T16:53:57;7.30;64.80
7844;DHT22;3967;48.702;9.326;2023-03-01T16:56:24;7.50;64.80
7844;DHT22;3967;48.702;9.326;2023-03-01T16:58:51;7.50;64.30
7844;DHT22;3967;48.702;9.326;2023-03-01T17:01:19;7.50;64.30
7844;DHT22;3967;48.702;9.326;2023-03-01T17:03:47;7.60;64.30
7844;DHT22;3967;48.702;9.326;2023-03-01T17:06:17;7.70;63.90
7844;DHT22;3967;48.702;9.326;2023-03-01T17:08:46;7.70;63.80
7844;DHT22;3967;48.702;9.326;2023-03-01T17:11:16;7.60;64.20
7844;DHT22;3967;48.702;9.326;2023-03-01T17:13:44;7.70;63.70
7844;DHT22;3967;48.702;9.326;2023-03-01T17:16:14;7.90;63.40
7844;DHT22;3967;48.702;9.326;2023-03-01T17:18:43;7.80;63.20
7844;DHT22;3967;48.702;9.326;2023-03-01T17:21:10;7.90;63.10
7844;DHT22;3967;48.702;9.326;2023-03-01T17:23:38;7.80;63.00
7844;DHT22;3967;48.702;9.326;2023-03-01T17:26:07;7.80;63.20
7844;DHT22;3967;48.702;9.326;2023-03-01T17:28:35;7.80;63.40
7844;DHT22;3967;48.702;9.326;2023-03-01T17:31:05;7.80;63.20
7844;DHT22;3967;48.702;9.326;2023-03-01T17:33:32;7.80;63.20
7844;DHT22;3967;48.702;9.326;2023-03-01T17:35:59;7.80;63.10
7844;DHT22;3967;48.702;9.326;2023-03-01T17:38:26;7.70;63.00
7844;DHT22;3967;48.702;9.326;2023-03-01T17:40:53;7.80;63.10
7844;DHT22;3967;48.702;9.326;2023-03-01T17:43:22;7.80;63.30
7844;DHT22;3967;48.702;9.326;2023-03-01T17:45:49;7.70;62.80
7844;DHT22;3967;48.702;9.326;2023-03-01T17:48:18;7.70;62.70
7844;DHT22;3967;48.702;9.326;2023-03-01T17:50:45;7.70;62.60
7844;DHT22;3967;48.702;9.326;2023-03-01T17:53:12;7.60;62.70
7844;DHT22;3967;48.702;9.326;2023-03-01T17:55:40;7.70;62.80
7844;DHT22;3967;48.702;9.326;2023-03-01T17:58:09;7.60;62.80
7844;DHT22;3967;48.702;9.326;2023-03-01T18:00:36;7.60;63.20
7844;DHT22;3967;48.702;9.326;2023-03-01T18:03:04;7.50;63.20
7844;DHT22;3967;48.702;9.326;2023-03-01T18:05:35;7.50;64.00
7844;DHT22;3967;48.702;9.326;2023-03-01T18:08:03;7.50;63.50
7844;DHT22;3967;48.702;9.326;2023-03-01T18:10:31;7.50;63.10
7844;DHT22;3967;48.702;9.326;2023-03-01T18:12:58;7.40;63.10
7844;DHT22;3967;48.702;9.326;2023-03-01T18:15:25;7.40;63.30
7844;DHT22;3967;48.702;9.326;2023-03-01T18:17:52;7.40;63.40
7844;DHT22;3967;48.702;9.326;2023-03-01T18:20:18;7.30;63.40
7844;DHT22;3967;48.702;9.326;2023-03-01T18:22:45;7.10;63.40
7844;DHT22;3967;48.702;9.326;2023-03-01T18:25:12;7.20;63.70
7844;DHT22;3967;48.702;9.326;2023-03-01T18:27:39;7.20;63.80
7844;DHT22;3967;48.702;9.326;2023-03-01T18:30:07;7.20;64.00
7844;DHT22;3967;48.702;9.326;2023-03-01T18:32:34;7.20;64.00
7844;DHT22;3967;48.702;9.326;2023-03-01T18:35:01;7.20;64.30
7844;DHT22;3967;48.702;9.326;2023-03-01T18:37:27;7.10;64.40